Details From EGCC - Manchester
To LPMA - Madeira
Flight Number -
Tags Generated
Created
Modified
Stats Distance 1,388 nm / 2,570 km
Max Altitude 0 ft / 0 m
Waypoints 5
Social Downloads 3
Likes 0
Share VATSIM

Download

Looking for another format? Having issues loading an existing format? Contact us
Advertisement - Login to hide

Notes

Generated

Route

EGCC MABUG LAPEX MAD LPMA

ID Type Via Altitude Latitude Longitude Leg Dist Tot Dist Heading (true) Name
O EGCC APT - 0 ft / 0 m 53.33197˚ -2.31066˚ - 0 nm - -
MABUG FIX - 0 ft / 0 m 49.78472˚ -5.93667˚ 252 nm 252 nm 214° / 211° -
LAPEX FIX - 0 ft / 0 m 47.00000˚ -8.00000˚ 186 nm 438 nm 207° / 205° -
MAD NDB - 0 ft / 0 m 32.74813˚ -16.70651˚ 943 nm 1382 nm 208° / 202° MADEIRA NDB
O LPMA APT - 0 ft / 0 m 32.68900˚ -16.78409˚ 5 nm 1387 nm 228° / 228° -

Altitude Profile

Advertisement - Login to hide

Weather


0- 5 10 15 20 25 30 35+ Temperature / ° C

Clouds and Precipitation
Forecast for 2017-12-18 18:00 UTC. Updated 2 hours ago

Ground ~20,000 ft ~40,000 ft Winds

EGCC

Details ICAO EGCC (MAN)
Name Manchester Intl
Region United Kingdom
Timezone Europe/London (UTC+0.0)
Stats Elevation 257 ft / 78 m (AMSL)
Location 53.347141° -2.283954°
Runways 2
Magnetic Variation 1.460° W

METAR

EGCC 181420Z AUTO VRB02KT 0350 R23R/0550 FG VV/// 05/05 Q1030 BECMG 0600

Decode

TAF

TAF AMD EGCC 181449Z 1814/1918 VRB03KT 0300 FG VV/// PROB30 TEMPO 1814/1906 3000 BR FEW004 BECMG 1906/1908 6000 NSW BKN008 BECMG 1908/1911 9999 SCT020 TEMPO 1911/1918 BKN012

Decode

Departure Runways

ID Width Length Bearing (true) Bearing (mag) Surface Threshold Offset Overrun Length
05L 151 ft / 46 m 9,981 ft / 3,042 m 50.99° 52.45° Asphalt 1,401 ft / 427 m 0 ft / 0 m
05R 151 ft / 46 m 9,952 ft / 3,033 m 50.97° 52.43° Asphalt 0 ft / 0 m 26 ft / 8 m
23L 151 ft / 46 m 9,952 ft / 3,033 m 231.00° 232.46° Asphalt 561 ft / 171 m 0 ft / 0 m
23R 151 ft / 46 m 9,981 ft / 3,042 m 231.02° 232.48° Asphalt 597 ft / 182 m 0 ft / 0 m

LPMA

Details ICAO LPMA (FNC)
Name Madeira
Region Portugal
Timezone Atlantic/Madeira (UTC+0.0)
Stats Elevation 192 ft / 59 m (AMSL)
Location 32.697704° -16.774449°
Runways 1
Magnetic Variation 4.980° W

METAR

LPMA 181430Z 03011KT 9999 BKN025 18/09 Q1028

Decode

TAF

TAF LPMA 181100Z 1812/1912 02012KT 9999 SCT015 SCT030 PROB40 TEMPO 1812/1912 BKN015

Decode

Destination Runways

ID Width Length Bearing (true) Bearing (mag) Surface Threshold Offset Overrun Length
05 141 ft / 43 m 8,683 ft / 2,647 m 42.98° 47.96° Asphalt 472 ft / 144 m 0 ft / 0 m
23 141 ft / 43 m 8,683 ft / 2,647 m 222.99° 227.97° Asphalt 466 ft / 142 m 0 ft / 0 m

Popular Alternatives